createdAt,value
2023-02-03T00:00:06.770Z,11.20
2023-02-03T00:02:33.728Z,11.30
2023-02-03T00:05:00.719Z,11.30
2023-02-03T00:07:27.822Z,11.30
2023-02-03T00:09:56.035Z,11.20
2023-02-03T00:12:23.242Z,11.20
2023-02-03T00:14:50.089Z,11.20
2023-02-03T00:17:16.997Z,11.20
2023-02-03T00:19:44.113Z,11.20
2023-02-03T00:22:11.026Z,11.20
2023-02-03T00:24:37.908Z,11.20
2023-02-03T00:27:04.853Z,11.20
2023-02-03T00:29:31.920Z,11.20
2023-02-03T00:31:59.329Z,11.20
2023-02-03T00:34:30.295Z,11.20
2023-02-03T00:36:57.329Z,11.10
2023-02-03T00:39:24.345Z,11.20
2023-02-03T00:41:51.448Z,11.10
2023-02-03T00:44:18.332Z,11.20
2023-02-03T00:46:45.629Z,11.10
2023-02-03T00:49:12.567Z,11.20
2023-02-03T00:51:39.607Z,11.20
2023-02-03T00:54:06.533Z,11.10
2023-02-03T00:56:33.395Z,11.20
2023-02-03T00:59:00.305Z,11.20
2023-02-03T01:01:29.071Z,11.10
2023-02-03T01:03:56.683Z,11.10
2023-02-03T01:06:23.907Z,11.20
2023-02-03T01:08:51.541Z,11.10
2023-02-03T01:11:27.819Z,11.20
2023-02-03T01:13:55.706Z,11.10
2023-02-03T01:16:23.448Z,11.10
2023-02-03T01:18:50.913Z,11.10
2023-02-03T01:21:19.358Z,11.10
2023-02-03T01:23:48.521Z,11.10
2023-02-03T01:26:18.829Z,11.20
2023-02-03T01:28:50.818Z,11.20
2023-02-03T01:31:19.278Z,11.20
2023-02-03T01:33:49.137Z,11.20
2023-02-03T01:36:17.193Z,11.10
2023-02-03T01:38:45.357Z,11.10
2023-02-03T01:41:13.789Z,11.10
2023-02-03T01:43:42.633Z,11.10
2023-02-03T01:46:28.241Z,11.10
2023-02-03T01:48:57.161Z,11.10
2023-02-03T01:51:24.818Z,11.10
2023-02-03T01:53:52.536Z,11.10
2023-02-03T01:56:19.624Z,11.10
2023-02-03T01:58:47.416Z,11.20
2023-02-03T02:01:17.960Z,11.10
2023-02-03T02:03:48.654Z,11.10
2023-02-03T02:06:18.401Z,11.10
2023-02-03T02:08:47.050Z,11.10
2023-02-03T02:11:14.124Z,11.20
2023-02-03T02:13:41.682Z,11.10
2023-02-03T02:16:27.507Z,11.10
2023-02-03T02:18:54.395Z,11.10
2023-02-03T02:21:30.469Z,11.10
2023-02-03T02:24:16.340Z,11.20
2023-02-03T02:26:55.592Z,11.20
2023-02-03T02:29:34.786Z,11.10
2023-02-03T02:32:21.040Z,11.10
2023-02-03T02:35:01.829Z,11.10
2023-02-03T02:37:43.681Z,11.10
2023-02-03T02:40:19.431Z,11.10
2023-02-03T02:42:56.533Z,11.10
2023-02-03T02:45:38.757Z,11.10
2023-02-03T02:48:09.244Z,11.10
2023-02-03T02:50:39.860Z,11.00
2023-02-03T02:53:07.739Z,11.10
2023-02-03T02:55:37.671Z,11.00
2023-02-03T02:58:07.347Z,11.10
2023-02-03T03:00:35.006Z,11.10
2023-02-03T03:03:18.957Z,11.00
2023-02-03T03:05:52.741Z,11.10
2023-02-03T03:08:22.700Z,11.00
2023-02-03T03:10:50.617Z,11.00
2023-02-03T03:13:21.282Z,11.00
2023-02-03T03:15:49.132Z,11.00
2023-02-03T03:18:24.190Z,11.10
2023-02-03T03:20:51.936Z,11.10
2023-02-03T03:23:30.492Z,11.10
2023-02-03T03:26:08.811Z,11.00
2023-02-03T03:28:40.717Z,11.10
2023-02-03T03:31:07.667Z,11.10
2023-02-03T03:33:34.727Z,11.10
2023-02-03T03:36:04.436Z,11.10
2023-02-03T03:38:43.429Z,11.10
2023-02-03T03:41:16.043Z,11.10
2023-02-03T03:43:45.048Z,11.00
2023-02-03T03:46:14.280Z,11.10
2023-02-03T03:48:51.349Z,11.10
2023-02-03T03:51:30.532Z,11.00
2023-02-03T03:54:00.511Z,11.10
2023-02-03T03:56:30.148Z,11.10
2023-02-03T03:58:59.591Z,11.10
2023-02-03T04:01:26.655Z,11.10
2023-02-03T04:03:56.864Z,11.10
2023-02-03T04:06:23.994Z,11.10
2023-02-03T04:08:50.848Z,11.10
2023-02-03T04:11:37.714Z,11.10
2023-02-03T04:14:05.144Z,11.10
2023-02-03T04:16:32.138Z,11.10
2023-02-03T04:18:59.089Z,11.10
2023-02-03T04:21:26.007Z,11.10
2023-02-03T04:23:53.193Z,11.00
2023-02-03T04:26:20.312Z,11.00
2023-02-03T04:28:47.208Z,11.00
2023-02-03T04:31:14.196Z,11.00
2023-02-03T04:33:41.134Z,11.00
2023-02-03T04:36:08.275Z,11.00
2023-02-03T04:38:35.140Z,11.00
2023-02-03T04:41:02.073Z,11.00
2023-02-03T04:43:29.029Z,11.00
2023-02-03T04:45:55.980Z,11.00
2023-02-03T04:48:22.974Z,11.00
2023-02-03T04:50:49.860Z,11.00
2023-02-03T04:53:16.789Z,11.00
2023-02-03T04:55:46.807Z,11.00
2023-02-03T04:58:13.677Z,11.00
2023-02-03T05:00:40.608Z,11.00
2023-02-03T05:03:07.598Z,11.00
2023-02-03T05:05:34.508Z,11.00
2023-02-03T05:08:01.464Z,11.00
2023-02-03T05:10:28.723Z,11.00
2023-02-03T05:12:55.720Z,11.00
2023-02-03T05:15:22.685Z,11.00
2023-02-03T05:17:51.874Z,11.00
2023-02-03T05:20:18.815Z,10.90
2023-02-03T05:22:45.650Z,10.90
2023-02-03T05:25:12.509Z,11.00
2023-02-03T05:27:40.186Z,10.90
2023-02-03T05:30:07.727Z,11.00
2023-02-03T05:32:34.651Z,11.00
2023-02-03T05:35:02.042Z,11.00
2023-02-03T05:37:29.005Z,11.00
2023-02-03T05:40:18.464Z,11.00
2023-02-03T05:42:48.719Z,11.00
2023-02-03T05:45:15.934Z,11.00
2023-02-03T05:47:43.091Z,11.00
2023-02-03T05:50:09.954Z,11.00
2023-02-03T05:52:36.874Z,10.90
2023-02-03T05:55:03.991Z,11.00
2023-02-03T05:57:32.340Z,11.00
2023-02-03T05:59:59.461Z,10.90
2023-02-03T06:02:26.422Z,11.00
2023-02-03T06:04:53.229Z,11.00
2023-02-03T06:07:20.037Z,11.00
2023-02-03T06:09:47.119Z,11.00
2023-02-03T06:12:15.090Z,11.00
2023-02-03T06:14:42.101Z,10.90
2023-02-03T06:17:09.081Z,11.00
2023-02-03T06:19:35.973Z,10.90
2023-02-03T06:22:02.837Z,11.00
2023-02-03T06:24:29.686Z,11.00
2023-02-03T06:26:56.511Z,11.00
2023-02-03T06:29:23.669Z,11.10
2023-02-03T06:31:50.685Z,11.10
2023-02-03T06:34:17.746Z,11.00
2023-02-03T06:36:44.605Z,11.00
2023-02-03T06:39:11.469Z,11.00
2023-02-03T06:41:38.584Z,11.00
2023-02-03T06:44:05.485Z,11.00
2023-02-03T06:46:34.213Z,11.00
2023-02-03T06:49:01.266Z,11.00
2023-02-03T06:51:28.130Z,11.00
2023-02-03T06:53:55.155Z,11.00
2023-02-03T06:56:21.997Z,11.00
2023-02-03T06:58:48.941Z,11.00
2023-02-03T07:01:15.884Z,11.00
2023-02-03T07:03:42.821Z,11.00
2023-02-03T07:06:09.701Z,11.00
2023-02-03T07:08:36.583Z,11.00
2023-02-03T07:11:03.555Z,11.00
2023-02-03T07:13:30.501Z,11.10
2023-02-03T07:15:57.388Z,11.00
2023-02-03T07:21:12.716Z,11.00
2023-02-03T07:23:40.028Z,11.00
2023-02-03T07:26:07.480Z,11.10
2023-02-03T07:28:35.432Z,11.10
2023-02-03T07:31:04.952Z,11.00
2023-02-03T07:33:32.269Z,11.10
2023-02-03T07:36:00.052Z,11.10
2023-02-03T07:38:27.799Z,11.10
2023-02-03T07:40:54.837Z,11.10
2023-02-03T07:43:21.702Z,11.10
2023-02-03T07:45:48.734Z,11.10
2023-02-03T07:48:15.881Z,11.10
2023-02-03T07:50:42.835Z,11.10
2023-02-03T07:53:09.783Z,11.10
2023-02-03T07:55:40.406Z,11.20
2023-02-03T07:58:07.803Z,11.10
2023-02-03T08:00:34.780Z,11.20
2023-02-03T08:03:03.183Z,11.10
2023-02-03T08:05:30.481Z,11.20
2023-02-03T08:07:57.709Z,11.10
2023-02-03T08:10:24.913Z,11.20
2023-02-03T08:12:55.684Z,11.20
2023-02-03T08:15:25.509Z,11.20
2023-02-03T08:17:52.431Z,11.20
2023-02-03T08:20:19.271Z,11.30
2023-02-03T08:22:46.108Z,11.20
2023-02-03T08:25:13.871Z,11.20
2023-02-03T08:27:41.619Z,11.30
2023-02-03T08:30:09.540Z,11.30
2023-02-03T08:32:36.460Z,11.30
2023-02-03T08:35:03.739Z,11.30
2023-02-03T08:37:32.715Z,11.30
2023-02-03T08:40:00.037Z,11.30
2023-02-03T08:42:27.184Z,11.30
2023-02-03T08:44:54.249Z,11.30
2023-02-03T08:47:21.187Z,11.40
2023-02-03T08:49:48.308Z,11.40
2023-02-03T08:52:18.008Z,11.30
2023-02-03T08:54:46.117Z,11.30
2023-02-03T08:57:13.255Z,11.30
2023-02-03T08:59:40.931Z,11.30
2023-02-03T09:02:10.862Z,11.30
2023-02-03T09:04:37.836Z,11.40
2023-02-03T09:07:04.823Z,11.40
2023-02-03T09:09:32.198Z,11.40
2023-02-03T09:12:05.567Z,11.40
2023-02-03T09:14:33.337Z,11.50
2023-02-03T09:17:01.015Z,11.50
2023-02-03T09:19:28.056Z,11.40
2023-02-03T09:21:54.964Z,11.50
2023-02-03T09:24:22.453Z,11.50
2023-02-03T09:26:49.878Z,11.50
2023-02-03T09:29:16.787Z,11.50
2023-02-03T09:31:44.124Z,11.50
2023-02-03T09:34:11.110Z,11.50
2023-02-03T09:36:38.086Z,11.50
2023-02-03T09:39:04.985Z,11.60
2023-02-03T09:41:31.767Z,11.50
2023-02-03T09:44:10.941Z,11.60
2023-02-03T09:46:47.179Z,11.50
2023-02-03T09:49:14.313Z,11.50
2023-02-03T09:51:46.384Z,11.60
2023-02-03T09:54:43.716Z,11.60
2023-02-03T09:57:20.659Z,11.60
2023-02-03T09:59:48.069Z,11.70
2023-02-03T10:02:16.981Z,11.70
2023-02-03T10:04:52.811Z,11.70
2023-02-03T10:07:41.501Z,11.60
2023-02-03T10:10:21.106Z,11.70
2023-02-03T10:12:47.948Z,11.60
2023-02-03T10:15:17.533Z,11.70
2023-02-03T10:17:48.390Z,11.60
2023-02-03T10:20:19.080Z,11.60
2023-02-03T10:22:48.131Z,11.60
2023-02-03T10:25:14.968Z,11.60
2023-02-03T10:27:42.726Z,11.70
2023-02-03T10:30:27.122Z,11.70
2023-02-03T10:32:55.242Z,11.70
2023-02-03T10:35:25.026Z,11.70
2023-02-03T10:37:55.691Z,11.70
2023-02-03T10:40:26.722Z,11.80
2023-02-03T10:43:12.431Z,11.70
2023-02-03T10:45:39.524Z,11.70
2023-02-03T10:48:11.270Z,11.80
2023-02-03T10:50:42.477Z,11.80
2023-02-03T10:53:18.249Z,11.80
2023-02-03T10:56:05.655Z,11.80
2023-02-03T10:58:34.497Z,11.90
2023-02-03T11:01:07.393Z,11.90
2023-02-03T11:03:34.730Z,11.90
2023-02-03T11:06:06.920Z,11.90
2023-02-03T11:08:34.691Z,12.00
2023-02-03T11:11:09.221Z,11.90
2023-02-03T11:13:36.291Z,12.00
2023-02-03T11:16:03.316Z,12.00
2023-02-03T11:18:49.083Z,12.10
2023-02-03T11:21:28.187Z,12.10
2023-02-03T11:24:02.706Z,12.20
2023-02-03T11:26:37.360Z,12.10
2023-02-03T11:29:05.650Z,12.20
2023-02-03T11:31:34.324Z,12.10
2023-02-03T11:34:06.149Z,12.30
2023-02-03T11:36:34.045Z,12.30
2023-02-03T11:39:11.841Z,12.20
2023-02-03T11:41:40.052Z,12.20
2023-02-03T11:44:17.610Z,12.20
2023-02-03T11:46:45.247Z,12.20
2023-02-03T11:49:25.703Z,12.20
2023-02-03T11:52:07.702Z,12.20
2023-02-03T11:54:45.286Z,12.30
2023-02-03T11:57:15.144Z,12.30
2023-02-03T12:00:00.826Z,12.40
2023-02-03T12:02:30.784Z,12.20
2023-02-03T12:05:20.764Z,12.20
2023-02-03T12:08:06.077Z,12.20
2023-02-03T12:10:38.362Z,12.20
2023-02-03T12:13:26.195Z,12.20
2023-02-03T12:16:01.614Z,12.10
2023-02-03T12:18:28.457Z,12.20
2023-02-03T12:21:04.236Z,12.20
2023-02-03T12:23:37.673Z,12.20
2023-02-03T12:26:23.117Z,12.20
2023-02-03T12:28:54.016Z,12.20
2023-02-03T12:31:23.565Z,12.20
2023-02-03T12:33:58.409Z,12.20
2023-02-03T12:36:28.866Z,12.20
2023-02-03T12:38:58.711Z,12.20
2023-02-03T12:41:34.571Z,12.20
2023-02-03T12:44:04.495Z,12.20
2023-02-03T12:46:35.574Z,12.20
2023-02-03T12:49:05.905Z,12.20
2023-02-03T12:51:40.509Z,12.20
2023-02-03T12:54:18.750Z,12.20
2023-02-03T12:56:47.896Z,12.20
2023-02-03T12:59:20.060Z,12.30
2023-02-03T13:01:51.665Z,12.20
2023-02-03T13:04:28.168Z,12.20
2023-02-03T13:06:55.000Z,12.20
2023-02-03T13:09:34.731Z,12.30
2023-02-03T13:12:10.847Z,12.30
2023-02-03T13:14:50.797Z,12.30
2023-02-03T13:17:24.603Z,12.30
2023-02-03T13:19:57.182Z,12.30
2023-02-03T13:22:25.122Z,12.30
2023-02-03T13:24:56.680Z,12.30
2023-02-03T13:27:43.867Z,12.20
2023-02-03T13:30:28.369Z,12.30
2023-02-03T13:32:58.871Z,12.30
2023-02-03T13:35:34.451Z,12.30
2023-02-03T13:38:07.386Z,12.30
2023-02-03T13:40:52.988Z,12.30
2023-02-03T13:43:37.243Z,12.30
2023-02-03T13:46:07.958Z,12.30
2023-02-03T13:48:35.802Z,12.20
2023-02-03T13:51:13.418Z,12.20
2023-02-03T13:53:41.719Z,12.30
2023-02-03T13:56:09.661Z,12.30
2023-02-03T13:58:38.744Z,12.20
2023-02-03T14:01:05.755Z,12.20
2023-02-03T14:03:32.627Z,12.30
2023-02-03T14:06:01.296Z,12.30
2023-02-03T14:08:28.199Z,12.30
2023-02-03T14:11:14.187Z,12.40
2023-02-03T14:13:41.255Z,12.30
2023-02-03T14:16:22.413Z,12.30
2023-02-03T14:18:49.396Z,12.30
2023-02-03T14:21:18.640Z,12.40
2023-02-03T14:23:50.515Z,12.30
2023-02-03T14:26:34.950Z,12.30
2023-02-03T14:29:02.321Z,12.40
2023-02-03T14:31:29.396Z,12.40
2023-02-03T14:34:14.136Z,12.40
2023-02-03T14:36:46.024Z,12.40
2023-02-03T14:39:19.002Z,12.40
2023-02-03T14:42:04.756Z,12.40
2023-02-03T14:44:38.125Z,12.40
2023-02-03T14:47:11.551Z,12.40
2023-02-03T14:49:38.453Z,12.40
2023-02-03T14:52:16.315Z,12.40
2023-02-03T14:54:53.971Z,12.40
2023-02-03T14:57:23.950Z,12.50
2023-02-03T14:59:53.894Z,12.40
2023-02-03T15:02:23.613Z,12.50
2023-02-03T15:04:51.104Z,12.50
2023-02-03T15:07:38.368Z,12.50
2023-02-03T15:10:12.880Z,12.40
2023-02-03T15:12:45.139Z,12.50
2023-02-03T15:15:12.936Z,12.50
2023-02-03T15:17:39.875Z,12.50
2023-02-03T15:20:24.178Z,12.50
2023-02-03T15:22:51.042Z,12.60
2023-02-03T15:25:19.428Z,12.50
2023-02-03T15:27:46.335Z,12.50
2023-02-03T15:30:16.511Z,12.60
2023-02-03T15:32:50.253Z,12.60
2023-02-03T15:35:19.738Z,12.60
2023-02-03T15:37:53.995Z,12.60
2023-02-03T15:40:23.028Z,12.60
2023-02-03T15:42:57.428Z,12.60
2023-02-03T15:45:27.661Z,12.60
2023-02-03T15:48:00.555Z,12.60
2023-02-03T15:50:32.366Z,12.50
2023-02-03T15:53:04.188Z,12.50
2023-02-03T15:55:37.796Z,12.50
2023-02-03T15:58:04.948Z,12.50
2023-02-03T16:00:32.068Z,12.50
2023-02-03T16:03:00.147Z,12.50
2023-02-03T16:05:29.492Z,12.50
2023-02-03T16:07:56.756Z,12.50
2023-02-03T16:10:26.930Z,12.40
2023-02-03T16:12:53.869Z,12.50
2023-02-03T16:15:21.550Z,12.40
2023-02-03T16:21:24.633Z,12.30
2023-02-03T16:23:51.516Z,12.30
2023-02-03T16:26:19.508Z,12.20
2023-02-03T16:29:23.511Z,12.20
2023-02-03T16:32:08.911Z,12.20
2023-02-03T16:34:54.302Z,12.20
2023-02-03T16:37:43.780Z,12.20
2023-02-03T16:40:29.603Z,12.10
2023-02-03T16:43:15.139Z,12.10
2023-02-03T16:46:00.582Z,12.10
2023-02-03T16:48:45.939Z,12.10
2023-02-03T16:51:16.079Z,12.10
2023-02-03T16:53:44.509Z,12.10
2023-02-03T16:56:11.961Z,12.10
2023-02-03T16:58:38.835Z,12.00
2023-02-03T17:01:06.651Z,12.00
2023-02-03T17:03:37.095Z,12.00
2023-02-03T17:06:08.558Z,12.00
2023-02-03T17:08:36.276Z,12.00
2023-02-03T17:11:11.916Z,12.00
2023-02-03T17:13:38.795Z,12.00
2023-02-03T17:16:10.254Z,11.90
2023-02-03T17:18:38.635Z,11.90
2023-02-03T17:21:10.626Z,11.90
2023-02-03T17:23:37.596Z,11.90
2023-02-03T17:26:04.784Z,11.90
2023-02-03T17:28:31.694Z,11.90
2023-02-03T17:30:59.881Z,11.90
2023-02-03T17:33:27.609Z,11.90
2023-02-03T17:36:05.597Z,11.90
2023-02-03T17:38:36.432Z,11.90
2023-02-03T17:54:37.304Z,11.70
2023-02-03T17:57:04.374Z,11.80
2023-02-03T17:59:31.569Z,11.80
2023-02-03T18:01:58.505Z,11.80
2023-02-03T18:04:26.382Z,11.70
2023-02-03T18:06:54.698Z,11.70
2023-02-03T18:09:21.795Z,11.70
2023-02-03T18:11:48.992Z,11.80
2023-02-03T18:14:16.857Z,11.70
2023-02-03T18:16:44.192Z,11.70
2023-02-03T18:19:14.491Z,11.70
2023-02-03T18:21:42.630Z,11.70
2023-02-03T18:24:10.855Z,11.70
2023-02-03T18:26:44.926Z,11.70
2023-02-03T18:29:12.947Z,11.60
2023-02-03T18:31:40.252Z,11.60
2023-02-03T18:34:07.366Z,11.60
2023-02-03T18:36:34.426Z,11.60
2023-02-03T18:39:02.241Z,11.60
2023-02-03T18:41:29.358Z,11.60
2023-02-03T18:43:56.309Z,11.60
2023-02-03T18:46:24.636Z,11.60
2023-02-03T18:48:52.260Z,11.60
2023-02-03T18:51:20.141Z,11.60
2023-02-03T18:53:49.320Z,11.60
2023-02-03T18:56:17.696Z,11.60
2023-02-03T18:58:44.938Z,11.60
2023-02-03T19:01:20.539Z,11.60
2023-02-03T19:03:48.421Z,11.60
2023-02-03T19:06:15.561Z,11.60
2023-02-03T19:08:42.753Z,11.60
2023-02-03T19:11:09.937Z,11.60
2023-02-03T19:13:36.965Z,11.50
2023-02-03T19:16:04.524Z,11.50
2023-02-03T19:18:33.139Z,11.50
2023-02-03T19:21:00.203Z,11.50
2023-02-03T19:23:27.412Z,11.50
2023-02-03T19:25:54.759Z,11.50
2023-02-03T19:28:30.512Z,11.50
2023-02-03T19:31:15.589Z,11.50
2023-02-03T19:33:43.115Z,11.60
2023-02-03T19:36:10.800Z,11.60
2023-02-03T19:38:37.813Z,11.60
2023-02-03T19:41:04.882Z,11.50
2023-02-03T19:43:31.859Z,11.50
2023-02-03T19:45:59.645Z,11.50
2023-02-03T19:48:26.512Z,11.50
2023-02-03T19:50:53.669Z,11.50
2023-02-03T19:53:21.780Z,11.50
2023-02-03T19:55:48.922Z,11.50
2023-02-03T19:58:16.212Z,11.40
2023-02-03T20:00:43.615Z,11.50
2023-02-03T20:03:10.660Z,11.50
2023-02-03T20:05:37.819Z,11.40
2023-02-03T20:08:05.219Z,11.40
2023-02-03T20:10:33.060Z,11.50
2023-02-03T20:13:00.366Z,11.50
2023-02-03T20:15:27.837Z,11.40
2023-02-03T20:17:54.826Z,11.40
2023-02-03T20:20:21.782Z,11.40
2023-02-03T20:22:49.129Z,11.40
2023-02-03T20:25:16.127Z,11.30
2023-02-03T20:27:43.103Z,11.40
2023-02-03T20:30:10.639Z,11.30
2023-02-03T20:32:37.586Z,11.30
2023-02-03T20:35:05.386Z,11.40
2023-02-03T20:37:32.798Z,11.40
2023-02-03T20:39:59.778Z,11.30
2023-02-03T20:42:27.032Z,11.30
2023-02-03T20:44:54.177Z,11.30
2023-02-03T20:47:22.693Z,11.30
2023-02-03T20:49:49.974Z,11.40
2023-02-03T20:52:18.188Z,11.30
2023-02-03T20:54:45.251Z,11.30
2023-02-03T20:57:14.114Z,11.30
2023-02-03T20:59:41.684Z,11.30
2023-02-03T21:02:17.915Z,11.30
2023-02-03T21:05:00.756Z,11.30
2023-02-03T21:07:30.227Z,11.30
2023-02-03T21:09:58.453Z,11.30
2023-02-03T21:12:29.545Z,11.30
2023-02-03T21:14:56.602Z,11.30
2023-02-03T21:17:24.996Z,11.40
2023-02-03T21:19:52.531Z,11.40
2023-02-03T21:22:27.161Z,11.40
2023-02-03T21:24:55.124Z,11.30
2023-02-03T21:27:25.176Z,11.40
2023-02-03T21:29:55.918Z,11.40
2023-02-03T21:32:23.934Z,11.40
2023-02-03T21:34:51.131Z,11.30
2023-02-03T21:37:21.132Z,11.40
2023-02-03T21:39:48.775Z,11.40
2023-02-03T21:42:41.294Z,11.40
2023-02-03T21:45:14.409Z,11.40
2023-02-03T21:47:41.407Z,11.40
2023-02-03T21:50:27.190Z,11.40
2023-02-03T21:52:54.323Z,11.40
2023-02-03T21:55:21.293Z,11.40
2023-02-03T21:57:48.527Z,11.40
2023-02-03T22:00:34.814Z,11.40
2023-02-03T22:03:02.195Z,11.40
2023-02-03T22:05:29.228Z,11.40
2023-02-03T22:11:59.557Z,11.40
2023-02-03T22:14:28.013Z,11.40
2023-02-03T22:16:55.001Z,11.40
2023-02-03T22:19:21.976Z,11.40
2023-02-03T22:21:50.950Z,11.40
2023-02-03T22:24:17.975Z,11.40
2023-02-03T22:26:44.917Z,11.30
2023-02-03T22:29:11.848Z,11.40
2023-02-03T22:31:38.921Z,11.40
2023-02-03T22:34:05.947Z,11.40
2023-02-03T22:36:33.005Z,11.30
2023-02-03T22:38:59.941Z,11.30
2023-02-03T22:41:26.919Z,11.30
2023-02-03T22:43:53.832Z,11.30
2023-02-03T22:46:21.159Z,11.30
2023-02-03T22:48:48.078Z,11.30
2023-02-03T22:51:14.965Z,11.30
2023-02-03T22:53:41.944Z,11.30
2023-02-03T22:56:08.911Z,11.30
2023-02-03T22:58:35.907Z,11.30
2023-02-03T23:01:02.996Z,11.40
2023-02-03T23:03:32.907Z,11.30
2023-02-03T23:06:00.223Z,11.40
2023-02-03T23:08:27.648Z,11.40
2023-02-03T23:10:54.727Z,11.30
2023-02-03T23:13:21.734Z,11.30
2023-02-03T23:15:48.738Z,11.30
2023-02-03T23:18:15.927Z,11.30
2023-02-03T23:20:43.000Z,11.30
2023-02-03T23:23:10.002Z,11.30
2023-02-03T23:25:36.887Z,11.30
2023-02-03T23:28:03.931Z,11.30
2023-02-03T23:30:31.169Z,11.20
2023-02-03T23:32:58.322Z,11.00
2023-02-03T23:35:43.677Z,10.90
2023-02-03T23:38:10.745Z,10.90
2023-02-03T23:40:37.888Z,10.90
2023-02-03T23:43:04.853Z,10.90
2023-02-03T23:45:31.917Z,10.80
2023-02-03T23:47:58.890Z,10.80
2023-02-03T23:50:25.908Z,10.80
2023-02-03T23:52:52.916Z,10.80
2023-02-03T23:55:21.270Z,10.70
2023-02-03T23:57:48.261Z,10.60
